sensor_id;sensor_type;location;lat;lon;timestamp;temperature;humidity
20526;DHT22;10421;49.142;9.232;2023-12-14T00:02:17;11.30;99.90
20526;DHT22;10421;49.142;9.232;2023-12-14T00:04:45;11.30;99.90
20526;DHT22;10421;49.142;9.232;2023-12-14T00:07:12;11.40;99.90
20526;DHT22;10421;49.142;9.232;2023-12-14T00:09:40;11.40;99.90
20526;DHT22;10421;49.142;9.232;2023-12-14T00:12:07;11.40;99.90
20526;DHT22;10421;49.142;9.232;2023-12-14T00:14:33;11.30;99.90
20526;DHT22;10421;49.142;9.232;2023-12-14T00:17:00;11.20;99.90
20526;DHT22;10421;49.142;9.232;2023-12-14T00:19:28;11.20;99.90
20526;DHT22;10421;49.142;9.232;2023-12-14T00:21:56;11.10;99.90
20526;DHT22;10421;49.142;9.232;2023-12-14T00:24:22;11.10;99.90
20526;DHT22;10421;49.142;9.232;2023-12-14T00:26:49;11.10;99.90
20526;DHT22;10421;49.142;9.232;2023-12-14T00:29:16;11.00;99.90
20526;DHT22;10421;49.142;9.232;2023-12-14T00:31:43;10.90;99.90
20526;DHT22;10421;49.142;9.232;2023-12-14T00:34:10;10.90;99.90
20526;DHT22;10421;49.142;9.232;2023-12-14T00:36:36;11.00;99.90
20526;DHT22;10421;49.142;9.232;2023-12-14T00:39:05;11.00;99.90
20526;DHT22;10421;49.142;9.232;2023-12-14T00:41:32;11.00;99.90
20526;DHT22;10421;49.142;9.232;2023-12-14T00:43:58;11.00;99.90
20526;DHT22;10421;49.142;9.232;2023-12-14T00:46:25;11.00;99.90
20526;DHT22;10421;49.142;9.232;2023-12-14T00:48:52;11.00;99.90
20526;DHT22;10421;49.142;9.232;2023-12-14T00:51:19;11.00;99.90
20526;DHT22;10421;49.142;9.232;2023-12-14T00:53:46;11.00;99.90
20526;DHT22;10421;49.142;9.232;2023-12-14T00:56:14;11.00;99.90
20526;DHT22;10421;49.142;9.232;2023-12-14T00:58:40;10.90;99.90
20526;DHT22;10421;49.142;9.232;2023-12-14T01:01:07;10.90;99.90
20526;DHT22;10421;49.142;9.232;2023-12-14T01:03:34;10.90;99.90
20526;DHT22;10421;49.142;9.232;2023-12-14T01:06:01;10.90;99.90
20526;DHT22;10421;49.142;9.232;2023-12-14T01:08:28;10.90;99.90
20526;DHT22;10421;49.142;9.232;2023-12-14T01:10:55;10.90;99.90
20526;DHT22;10421;49.142;9.232;2023-12-14T01:13:23;10.80;99.90
20526;DHT22;10421;49.142;9.232;2023-12-14T01:15:50;10.80;99.90
20526;DHT22;10421;49.142;9.232;2023-12-14T01:18:17;10.90;99.90
20526;DHT22;10421;49.142;9.232;2023-12-14T01:20:44;10.90;99.90
20526;DHT22;10421;49.142;9.232;2023-12-14T01:23:10;10.90;99.90
20526;DHT22;10421;49.142;9.232;2023-12-14T01:25:37;10.90;99.90
20526;DHT22;10421;49.142;9.232;2023-12-14T01:28:04;10.90;99.90
20526;DHT22;10421;49.142;9.232;2023-12-14T01:30:31;10.90;99.90
20526;DHT22;10421;49.142;9.232;2023-12-14T01:32:58;10.80;99.90
20526;DHT22;10421;49.142;9.232;2023-12-14T01:35:25;10.80;99.90
20526;DHT22;10421;49.142;9.232;2023-12-14T01:37:51;10.80;99.90
20526;DHT22;10421;49.142;9.232;2023-12-14T01:40:19;10.80;99.90
20526;DHT22;10421;49.142;9.232;2023-12-14T01:42:46;10.90;99.90
20526;DHT22;10421;49.142;9.232;2023-12-14T01:45:12;10.90;99.90
20526;DHT22;10421;49.142;9.232;2023-12-14T01:47:42;10.80;99.90
20526;DHT22;10421;49.142;9.232;2023-12-14T01:50:09;10.90;99.90
20526;DHT22;10421;49.142;9.232;2023-12-14T01:52:36;10.90;99.90
20526;DHT22;10421;49.142;9.232;2023-12-14T01:55:03;10.90;99.90
20526;DHT22;10421;49.142;9.232;2023-12-14T01:57:30;10.90;99.90
20526;DHT22;10421;49.142;9.232;2023-12-14T01:59:56;10.80;99.90
20526;DHT22;10421;49.142;9.232;2023-12-14T02:02:23;10.90;99.90
20526;DHT22;10421;49.142;9.232;2023-12-14T02:04:51;10.90;99.90
20526;DHT22;10421;49.142;9.232;2023-12-14T02:07:17;11.00;99.90
20526;DHT22;10421;49.142;9.232;2023-12-14T02:09:44;11.00;99.90
20526;DHT22;10421;49.142;9.232;2023-12-14T02:12:11;11.00;99.90
20526;DHT22;10421;49.142;9.232;2023-12-14T02:14:37;11.00;99.90
20526;DHT22;10421;49.142;9.232;2023-12-14T02:17:04;11.00;99.90
20526;DHT22;10421;49.142;9.232;2023-12-14T02:19:31;11.00;99.90
20526;DHT22;10421;49.142;9.232;2023-12-14T02:21:59;11.10;99.90
20526;DHT22;10421;49.142;9.232;2023-12-14T02:24:27;11.00;99.90
20526;DHT22;10421;49.142;9.232;2023-12-14T02:26:53;11.10;99.90
20526;DHT22;10421;49.142;9.232;2023-12-14T02:29:20;11.10;99.90
20526;DHT22;10421;49.142;9.232;2023-12-14T02:31:47;11.10;99.90
20526;DHT22;10421;49.142;9.232;2023-12-14T02:34:14;11.10;99.90
20526;DHT22;10421;49.142;9.232;2023-12-14T02:36:41;11.20;99.90
20526;DHT22;10421;49.142;9.232;2023-12-14T02:39:07;11.20;99.90
20526;DHT22;10421;49.142;9.232;2023-12-14T02:41:35;11.20;99.90
20526;DHT22;10421;49.142;9.232;2023-12-14T02:44:02;11.20;99.90
20526;DHT22;10421;49.142;9.232;2023-12-14T02:46:29;11.20;99.90
20526;DHT22;10421;49.142;9.232;2023-12-14T02:48:55;11.20;99.90
20526;DHT22;10421;49.142;9.232;2023-12-14T02:51:22;11.30;99.90
20526;DHT22;10421;49.142;9.232;2023-12-14T02:53:49;11.30;99.90
20526;DHT22;10421;49.142;9.232;2023-12-14T02:56:15;11.30;99.90
20526;DHT22;10421;49.142;9.232;2023-12-14T02:58:43;11.30;99.90
20526;DHT22;10421;49.142;9.232;2023-12-14T03:01:14;11.30;99.90
20526;DHT22;10421;49.142;9.232;2023-12-14T03:03:41;11.40;99.90
20526;DHT22;10421;49.142;9.232;2023-12-14T03:06:08;11.40;99.90
20526;DHT22;10421;49.142;9.232;2023-12-14T03:08:34;11.30;99.90
20526;DHT22;10421;49.142;9.232;2023-12-14T03:11:01;11.40;99.90
20526;DHT22;10421;49.142;9.232;2023-12-14T03:13:28;11.30;99.90
20526;DHT22;10421;49.142;9.232;2023-12-14T03:15:56;11.30;99.90
20526;DHT22;10421;49.142;9.232;2023-12-14T03:18:22;11.30;99.90
20526;DHT22;10421;49.142;9.232;2023-12-14T03:20:49;11.30;99.90
20526;DHT22;10421;49.142;9.232;2023-12-14T03:23:16;11.30;99.90
20526;DHT22;10421;49.142;9.232;2023-12-14T03:25:43;11.30;99.90
20526;DHT22;10421;49.142;9.232;2023-12-14T03:28:09;11.30;99.90
20526;DHT22;10421;49.142;9.232;2023-12-14T03:30:36;11.40;99.90
20526;DHT22;10421;49.142;9.232;2023-12-14T03:33:04;11.30;99.90
20526;DHT22;10421;49.142;9.232;2023-12-14T03:35:33;11.30;99.90
20526;DHT22;10421;49.142;9.232;2023-12-14T03:37:59;11.30;99.90
20526;DHT22;10421;49.142;9.232;2023-12-14T03:40:26;11.30;99.90
20526;DHT22;10421;49.142;9.232;2023-12-14T03:42:53;11.30;99.90
20526;DHT22;10421;49.142;9.232;2023-12-14T03:45:19;11.30;99.90
20526;DHT22;10421;49.142;9.232;2023-12-14T03:47:46;11.30;99.90
20526;DHT22;10421;49.142;9.232;2023-12-14T03:50:14;11.30;99.90
20526;DHT22;10421;49.142;9.232;2023-12-14T03:52:41;11.20;99.90
20526;DHT22;10421;49.142;9.232;2023-12-14T03:55:08;11.20;99.90
20526;DHT22;10421;49.142;9.232;2023-12-14T03:57:35;11.20;99.90
20526;DHT22;10421;49.142;9.232;2023-12-14T04:00:01;11.30;99.90
20526;DHT22;10421;49.142;9.232;2023-12-14T04:02:28;11.30;99.90
20526;DHT22;10421;49.142;9.232;2023-12-14T04:04:55;11.30;99.90
20526;DHT22;10421;49.142;9.232;2023-12-14T04:07:23;11.30;99.90
20526;DHT22;10421;49.142;9.232;2023-12-14T04:09:50;11.30;99.90
20526;DHT22;10421;49.142;9.232;2023-12-14T04:12:17;11.40;99.90
20526;DHT22;10421;49.142;9.232;2023-12-14T04:14:43;11.40;99.90
20526;DHT22;10421;49.142;9.232;2023-12-14T04:17:10;11.40;99.90
20526;DHT22;10421;49.142;9.232;2023-12-14T04:19:38;11.40;99.90
20526;DHT22;10421;49.142;9.232;2023-12-14T04:22:05;11.40;99.90
20526;DHT22;10421;49.142;9.232;2023-12-14T04:24:33;11.40;99.90
20526;DHT22;10421;49.142;9.232;2023-12-14T04:27:00;11.40;99.90
20526;DHT22;10421;49.142;9.232;2023-12-14T04:29:26;11.40;99.90
20526;DHT22;10421;49.142;9.232;2023-12-14T04:31:53;11.40;99.90
20526;DHT22;10421;49.142;9.232;2023-12-14T04:34:20;11.40;99.90
20526;DHT22;10421;49.142;9.232;2023-12-14T04:36:47;11.40;99.90
20526;DHT22;10421;49.142;9.232;2023-12-14T04:39:14;11.40;99.90
20526;DHT22;10421;49.142;9.232;2023-12-14T04:41:43;11.30;99.90
20526;DHT22;10421;49.142;9.232;2023-12-14T04:44:10;11.30;99.90
20526;DHT22;10421;49.142;9.232;2023-12-14T04:46:37;11.30;99.90
20526;DHT22;10421;49.142;9.232;2023-12-14T04:49:04;11.40;99.90
20526;DHT22;10421;49.142;9.232;2023-12-14T04:51:30;11.30;99.90
20526;DHT22;10421;49.142;9.232;2023-12-14T04:53:57;11.30;99.90
20526;DHT22;10421;49.142;9.232;2023-12-14T04:56:24;11.30;99.90
20526;DHT22;10421;49.142;9.232;2023-12-14T04:58:52;11.30;99.90
20526;DHT22;10421;49.142;9.232;2023-12-14T05:01:19;11.30;99.90
20526;DHT22;10421;49.142;9.232;2023-12-14T05:03:46;11.40;99.90
20526;DHT22;10421;49.142;9.232;2023-12-14T05:06:12;11.30;99.90
20526;DHT22;10421;49.142;9.232;2023-12-14T05:08:39;11.40;99.90
20526;DHT22;10421;49.142;9.232;2023-12-14T05:11:06;11.30;99.90
20526;DHT22;10421;49.142;9.232;2023-12-14T05:13:32;11.30;99.90
20526;DHT22;10421;49.142;9.232;2023-12-14T05:16:00;11.30;99.90
20526;DHT22;10421;49.142;9.232;2023-12-14T05:18:27;11.30;99.90
20526;DHT22;10421;49.142;9.232;2023-12-14T05:20:54;11.30;99.90
20526;DHT22;10421;49.142;9.232;2023-12-14T05:23:21;11.30;99.90
20526;DHT22;10421;49.142;9.232;2023-12-14T05:25:49;11.30;99.90
20526;DHT22;10421;49.142;9.232;2023-12-14T05:28:16;11.40;99.90
20526;DHT22;10421;49.142;9.232;2023-12-14T05:30:42;11.30;99.90
20526;DHT22;10421;49.142;9.232;2023-12-14T05:33:10;11.40;99.90
20526;DHT22;10421;49.142;9.232;2023-12-14T05:35:37;11.30;99.90
20526;DHT22;10421;49.142;9.232;2023-12-14T05:38:04;11.20;99.90
20526;DHT22;10421;49.142;9.232;2023-12-14T05:40:30;11.10;99.90
20526;DHT22;10421;49.142;9.232;2023-12-14T05:42:57;11.10;99.90
20526;DHT22;10421;49.142;9.232;2023-12-14T05:45:24;11.10;99.90
20526;DHT22;10421;49.142;9.232;2023-12-14T05:47:51;11.10;99.90
20526;DHT22;10421;49.142;9.232;2023-12-14T05:50:19;11.10;99.90
20526;DHT22;10421;49.142;9.232;2023-12-14T05:52:47;11.10;99.90
20526;DHT22;10421;49.142;9.232;2023-12-14T05:55:14;11.10;99.90
20526;DHT22;10421;49.142;9.232;2023-12-14T05:57:44;11.10;99.90
20526;DHT22;10421;49.142;9.232;2023-12-14T06:00:11;11.00;99.90
20526;DHT22;10421;49.142;9.232;2023-12-14T06:02:38;11.10;99.90
20526;DHT22;10421;49.142;9.232;2023-12-14T06:05:06;11.10;99.90
20526;DHT22;10421;49.142;9.232;2023-12-14T06:07:35;11.10;99.90
20526;DHT22;10421;49.142;9.232;2023-12-14T06:10:01;11.10;99.90
20526;DHT22;10421;49.142;9.232;2023-12-14T06:12:29;11.00;99.90
20526;DHT22;10421;49.142;9.232;2023-12-14T06:14:55;11.10;99.90
20526;DHT22;10421;49.142;9.232;2023-12-14T06:17:22;11.20;99.90
20526;DHT22;10421;49.142;9.232;2023-12-14T06:19:49;11.30;99.90
20526;DHT22;10421;49.142;9.232;2023-12-14T06:22:15;11.40;99.90
20526;DHT22;10421;49.142;9.232;2023-12-14T06:24:43;11.50;99.90
20526;DHT22;10421;49.142;9.232;2023-12-14T06:27:11;11.50;99.90
20526;DHT22;10421;49.142;9.232;2023-12-14T06:29:37;11.50;99.90
20526;DHT22;10421;49.142;9.232;2023-12-14T06:32:04;11.40;99.90
20526;DHT22;10421;49.142;9.232;2023-12-14T06:34:31;11.40;99.90
20526;DHT22;10421;49.142;9.232;2023-12-14T06:36:59;11.30;99.90
20526;DHT22;10421;49.142;9.232;2023-12-14T06:39:27;11.40;99.90
20526;DHT22;10421;49.142;9.232;2023-12-14T06:41:55;11.30;99.90
20526;DHT22;10421;49.142;9.232;2023-12-14T06:44:22;11.30;99.90
20526;DHT22;10421;49.142;9.232;2023-12-14T06:46:50;11.30;99.90
20526;DHT22;10421;49.142;9.232;2023-12-14T06:49:17;11.30;99.90
20526;DHT22;10421;49.142;9.232;2023-12-14T06:51:43;11.30;99.90
20526;DHT22;10421;49.142;9.232;2023-12-14T06:54:10;11.30;99.90
20526;DHT22;10421;49.142;9.232;2023-12-14T06:56:37;11.20;99.90
20526;DHT22;10421;49.142;9.232;2023-12-14T06:59:05;11.20;99.90
20526;DHT22;10421;49.142;9.232;2023-12-14T07:01:31;11.20;99.90
20526;DHT22;10421;49.142;9.232;2023-12-14T07:03:58;11.20;99.90
20526;DHT22;10421;49.142;9.232;2023-12-14T07:06:25;11.10;99.90
20526;DHT22;10421;49.142;9.232;2023-12-14T07:08:52;11.10;99.90
20526;DHT22;10421;49.142;9.232;2023-12-14T07:11:18;11.10;99.90
20526;DHT22;10421;49.142;9.232;2023-12-14T07:13:45;11.10;99.90
20526;DHT22;10421;49.142;9.232;2023-12-14T07:16:14;11.10;99.90
20526;DHT22;10421;49.142;9.232;2023-12-14T07:18:43;11.00;99.90
20526;DHT22;10421;49.142;9.232;2023-12-14T07:21:10;11.10;99.90
20526;DHT22;10421;49.142;9.232;2023-12-14T07:23:37;11.00;99.90
20526;DHT22;10421;49.142;9.232;2023-12-14T07:26:04;11.10;99.90
20526;DHT22;10421;49.142;9.232;2023-12-14T07:28:30;11.10;99.90
20526;DHT22;10421;49.142;9.232;2023-12-14T07:30:57;11.10;99.90
20526;DHT22;10421;49.142;9.232;2023-12-14T07:33:26;11.00;99.90
20526;DHT22;10421;49.142;9.232;2023-12-14T07:35:52;11.00;99.90
20526;DHT22;10421;49.142;9.232;2023-12-14T07:38:19;11.00;99.90
20526;DHT22;10421;49.142;9.232;2023-12-14T07:40:46;11.00;99.90
20526;DHT22;10421;49.142;9.232;2023-12-14T07:43:15;11.00;99.90
20526;DHT22;10421;49.142;9.232;2023-12-14T07:45:42;10.90;99.90
20526;DHT22;10421;49.142;9.232;2023-12-14T07:48:09;10.90;99.90
20526;DHT22;10421;49.142;9.232;2023-12-14T07:50:37;10.90;99.90
20526;DHT22;10421;49.142;9.232;2023-12-14T07:53:03;10.80;99.90
20526;DHT22;10421;49.142;9.232;2023-12-14T07:55:30;10.90;99.90
20526;DHT22;10421;49.142;9.232;2023-12-14T07:57:57;10.80;99.90
20526;DHT22;10421;49.142;9.232;2023-12-14T08:00:24;10.80;99.90
20526;DHT22;10421;49.142;9.232;2023-12-14T08:02:50;10.80;99.90
20526;DHT22;10421;49.142;9.232;2023-12-14T08:05:17;10.80;99.90
20526;DHT22;10421;49.142;9.232;2023-12-14T08:07:45;10.90;99.90
20526;DHT22;10421;49.142;9.232;2023-12-14T08:10:13;10.90;99.90
20526;DHT22;10421;49.142;9.232;2023-12-14T08:12:40;11.00;99.90
20526;DHT22;10421;49.142;9.232;2023-12-14T08:15:08;11.00;99.90
20526;DHT22;10421;49.142;9.232;2023-12-14T08:17:35;11.00;99.90
20526;DHT22;10421;49.142;9.232;2023-12-14T08:20:02;11.10;99.90
20526;DHT22;10421;49.142;9.232;2023-12-14T08:22:34;11.10;99.90
20526;DHT22;10421;49.142;9.232;2023-12-14T08:25:02;11.20;99.90
20526;DHT22;10421;49.142;9.232;2023-12-14T08:27:29;11.30;99.90
20526;DHT22;10421;49.142;9.232;2023-12-14T08:29:56;11.20;99.90
20526;DHT22;10421;49.142;9.232;2023-12-14T08:32:23;11.20;99.90
20526;DHT22;10421;49.142;9.232;2023-12-14T08:34:50;11.20;99.90
20526;DHT22;10421;49.142;9.232;2023-12-14T08:37:18;11.10;99.90
20526;DHT22;10421;49.142;9.232;2023-12-14T08:39:45;11.10;99.90
20526;DHT22;10421;49.142;9.232;2023-12-14T08:42:13;11.20;99.90
20526;DHT22;10421;49.142;9.232;2023-12-14T08:44:39;11.10;99.90
20526;DHT22;10421;49.142;9.232;2023-12-14T08:47:06;11.20;99.90
20526;DHT22;10421;49.142;9.232;2023-12-14T08:49:34;11.20;99.90
20526;DHT22;10421;49.142;9.232;2023-12-14T08:52:01;11.20;99.90
20526;DHT22;10421;49.142;9.232;2023-12-14T08:54:29;11.20;99.90
20526;DHT22;10421;49.142;9.232;2023-12-14T08:56:56;11.20;99.90
20526;DHT22;10421;49.142;9.232;2023-12-14T08:59:24;11.20;99.90
20526;DHT22;10421;49.142;9.232;2023-12-14T09:01:51;11.20;99.90
20526;DHT22;10421;49.142;9.232;2023-12-14T09:04:18;11.20;99.90
20526;DHT22;10421;49.142;9.232;2023-12-14T09:06:44;11.20;99.90
20526;DHT22;10421;49.142;9.232;2023-12-14T09:09:11;11.20;99.90
20526;DHT22;10421;49.142;9.232;2023-12-14T09:11:38;11.20;99.90
20526;DHT22;10421;49.142;9.232;2023-12-14T09:14:06;11.20;99.90
20526;DHT22;10421;49.142;9.232;2023-12-14T09:16:34;11.20;99.90
20526;DHT22;10421;49.142;9.232;2023-12-14T09:19:00;11.30;99.90
20526;DHT22;10421;49.142;9.232;2023-12-14T09:21:27;11.30;99.90
20526;DHT22;10421;49.142;9.232;2023-12-14T09:23:54;11.30;99.90
20526;DHT22;10421;49.142;9.232;2023-12-14T09:26:21;11.30;99.90
20526;DHT22;10421;49.142;9.232;2023-12-14T09:28:47;11.40;99.90
20526;DHT22;10421;49.142;9.232;2023-12-14T09:31:14;11.30;99.90
20526;DHT22;10421;49.142;9.232;2023-12-14T09:33:43;11.30;99.90
20526;DHT22;10421;49.142;9.232;2023-12-14T09:36:10;11.30;99.90
20526;DHT22;10421;49.142;9.232;2023-12-14T09:38:36;11.30;99.90
20526;DHT22;10421;49.142;9.232;2023-12-14T09:41:03;11.30;99.90
20526;DHT22;10421;49.142;9.232;2023-12-14T09:43:33;11.20;99.90
20526;DHT22;10421;49.142;9.232;2023-12-14T09:46:00;11.20;99.90
20526;DHT22;10421;49.142;9.232;2023-12-14T09:48:28;11.20;99.90
20526;DHT22;10421;49.142;9.232;2023-12-14T09:50:57;11.30;99.90
20526;DHT22;10421;49.142;9.232;2023-12-14T09:53:24;11.40;99.90
20526;DHT22;10421;49.142;9.232;2023-12-14T09:55:50;11.30;99.90
20526;DHT22;10421;49.142;9.232;2023-12-14T09:58:17;11.40;99.90
20526;DHT22;10421;49.142;9.232;2023-12-14T10:00:44;11.40;99.90
20526;DHT22;10421;49.142;9.232;2023-12-14T10:03:24;11.40;99.90
20526;DHT22;10421;49.142;9.232;2023-12-14T10:05:53;11.40;99.90
20526;DHT22;10421;49.142;9.232;2023-12-14T10:08:21;11.50;99.90
20526;DHT22;10421;49.142;9.232;2023-12-14T10:10:49;11.50;99.90
20526;DHT22;10421;49.142;9.232;2023-12-14T10:13:18;11.50;99.90
20526;DHT22;10421;49.142;9.232;2023-12-14T10:15:46;11.50;99.90
20526;DHT22;10421;49.142;9.232;2023-12-14T10:18:21;11.50;99.90
20526;DHT22;10421;49.142;9.232;2023-12-14T10:20:48;11.50;99.90
20526;DHT22;10421;49.142;9.232;2023-12-14T10:23:15;11.50;99.90
20526;DHT22;10421;49.142;9.232;2023-12-14T10:25:43;11.50;99.90
20526;DHT22;10421;49.142;9.232;2023-12-14T10:28:11;11.50;99.90
20526;DHT22;10421;49.142;9.232;2023-12-14T10:30:39;11.50;99.90
20526;DHT22;10421;49.142;9.232;2023-12-14T10:33:06;11.60;99.90
20526;DHT22;10421;49.142;9.232;2023-12-14T10:35:32;11.60;99.90
20526;DHT22;10421;49.142;9.232;2023-12-14T10:38:03;11.60;99.90
20526;DHT22;10421;49.142;9.232;2023-12-14T10:40:31;11.60;99.90
20526;DHT22;10421;49.142;9.232;2023-12-14T10:43:00;11.60;99.90
20526;DHT22;10421;49.142;9.232;2023-12-14T10:45:30;11.60;99.90
20526;DHT22;10421;49.142;9.232;2023-12-14T10:47:59;11.60;99.90
20526;DHT22;10421;49.142;9.232;2023-12-14T10:50:28;11.60;99.90
20526;DHT22;10421;49.142;9.232;2023-12-14T10:52:56;11.60;99.90
20526;DHT22;10421;49.142;9.232;2023-12-14T10:55:26;11.50;99.90
20526;DHT22;10421;49.142;9.232;2023-12-14T10:57:57;11.50;99.90
20526;DHT22;10421;49.142;9.232;2023-12-14T11:00:25;11.60;99.90
20526;DHT22;10421;49.142;9.232;2023-12-14T11:02:52;11.60;99.90
20526;DHT22;10421;49.142;9.232;2023-12-14T11:05:19;11.60;99.90
20526;DHT22;10421;49.142;9.232;2023-12-14T11:07:55;11.60;99.90
20526;DHT22;10421;49.142;9.232;2023-12-14T11:10:27;11.60;99.90
20526;DHT22;10421;49.142;9.232;2023-12-14T11:12:57;11.60;99.90
20526;DHT22;10421;49.142;9.232;2023-12-14T11:15:25;11.60;99.90
20526;DHT22;10421;49.142;9.232;2023-12-14T11:18:24;11.70;99.90
20526;DHT22;10421;49.142;9.232;2023-12-14T11:20:53;11.70;99.90
20526;DHT22;10421;49.142;9.232;2023-12-14T11:23:29;11.70;99.90
20526;DHT22;10421;49.142;9.232;2023-12-14T11:25:58;11.80;99.90
20526;DHT22;10421;49.142;9.232;2023-12-14T11:28:25;11.70;99.90
20526;DHT22;10421;49.142;9.232;2023-12-14T11:30:54;11.70;99.90
20526;DHT22;10421;49.142;9.232;2023-12-14T11:33:21;11.70;99.90
20526;DHT22;10421;49.142;9.232;2023-12-14T11:35:48;11.70;99.90
20526;DHT22;10421;49.142;9.232;2023-12-14T11:38:16;11.70;99.90
20526;DHT22;10421;49.142;9.232;2023-12-14T11:40:43;11.70;99.90
20526;DHT22;10421;49.142;9.232;2023-12-14T11:43:10;11.70;99.90
20526;DHT22;10421;49.142;9.232;2023-12-14T11:45:38;11.70;99.90
20526;DHT22;10421;49.142;9.232;2023-12-14T11:48:07;11.80;99.90
20526;DHT22;10421;49.142;9.232;2023-12-14T11:50:36;11.80;99.90
20526;DHT22;10421;49.142;9.232;2023-12-14T11:53:04;11.80;99.90
20526;DHT22;10421;49.142;9.232;2023-12-14T11:55:32;11.80;99.90
20526;DHT22;10421;49.142;9.232;2023-12-14T11:57:59;11.80;99.90
20526;DHT22;10421;49.142;9.232;2023-12-14T12:00:27;11.70;99.90
20526;DHT22;10421;49.142;9.232;2023-12-14T12:03:09;11.70;99.90
20526;DHT22;10421;49.142;9.232;2023-12-14T12:05:36;11.60;99.90
20526;DHT22;10421;49.142;9.232;2023-12-14T12:08:03;11.60;99.90
20526;DHT22;10421;49.142;9.232;2023-12-14T12:10:31;11.60;99.90
20526;DHT22;10421;49.142;9.232;2023-12-14T12:13:02;11.60;99.90
20526;DHT22;10421;49.142;9.232;2023-12-14T12:15:30;11.60;99.90
20526;DHT22;10421;49.142;9.232;2023-12-14T12:17:58;11.70;99.90
20526;DHT22;10421;49.142;9.232;2023-12-14T12:20:26;11.70;99.90
20526;DHT22;10421;49.142;9.232;2023-12-14T12:22:53;11.80;99.90
20526;DHT22;10421;49.142;9.232;2023-12-14T12:25:20;11.80;99.90
20526;DHT22;10421;49.142;9.232;2023-12-14T12:27:48;11.80;99.90
20526;DHT22;10421;49.142;9.232;2023-12-14T12:30:15;11.70;99.90
20526;DHT22;10421;49.142;9.232;2023-12-14T12:32:41;11.70;99.90
20526;DHT22;10421;49.142;9.232;2023-12-14T12:35:09;11.80;99.90
20526;DHT22;10421;49.142;9.232;2023-12-14T12:37:37;11.80;99.90
20526;DHT22;10421;49.142;9.232;2023-12-14T12:40:06;11.90;99.90
20526;DHT22;10421;49.142;9.232;2023-12-14T12:42:33;11.90;99.90
20526;DHT22;10421;49.142;9.232;2023-12-14T12:45:00;11.90;99.90
20526;DHT22;10421;49.142;9.232;2023-12-14T12:47:27;11.90;99.90
20526;DHT22;10421;49.142;9.232;2023-12-14T12:49:53;11.90;99.90
20526;DHT22;10421;49.142;9.232;2023-12-14T12:52:20;11.90;99.90
20526;DHT22;10421;49.142;9.232;2023-12-14T12:54:48;12.00;99.90
20526;DHT22;10421;49.142;9.232;2023-12-14T12:57:15;12.00;99.90
20526;DHT22;10421;49.142;9.232;2023-12-14T12:59:42;12.10;99.90
20526;DHT22;10421;49.142;9.232;2023-12-14T13:02:08;12.10;99.90
20526;DHT22;10421;49.142;9.232;2023-12-14T13:04:35;12.10;99.90
20526;DHT22;10421;49.142;9.232;2023-12-14T13:07:02;12.10;99.90
20526;DHT22;10421;49.142;9.232;2023-12-14T13:09:30;12.10;99.90
20526;DHT22;10421;49.142;9.232;2023-12-14T13:11:58;12.10;99.90
20526;DHT22;10421;49.142;9.232;2023-12-14T13:14:25;12.10;99.90
20526;DHT22;10421;49.142;9.232;2023-12-14T13:16:51;12.20;99.90
20526;DHT22;10421;49.142;9.232;2023-12-14T13:19:18;12.20;99.90
20526;DHT22;10421;49.142;9.232;2023-12-14T13:21:45;12.20;99.90
20526;DHT22;10421;49.142;9.232;2023-12-14T13:24:11;12.20;99.90
20526;DHT22;10421;49.142;9.232;2023-12-14T13:26:38;12.20;99.90
20526;DHT22;10421;49.142;9.232;2023-12-14T13:29:07;12.20;99.90
20526;DHT22;10421;49.142;9.232;2023-12-14T13:31:33;12.20;99.90
20526;DHT22;10421;49.142;9.232;2023-12-14T13:34:00;12.20;99.90
20526;DHT22;10421;49.142;9.232;2023-12-14T13:36:27;12.20;99.90
20526;DHT22;10421;49.142;9.232;2023-12-14T13:38:53;12.20;99.90
20526;DHT22;10421;49.142;9.232;2023-12-14T13:41:21;12.20;99.90
20526;DHT22;10421;49.142;9.232;2023-12-14T13:43:48;12.30;99.90
20526;DHT22;10421;49.142;9.232;2023-12-14T13:46:18;12.30;99.90
20526;DHT22;10421;49.142;9.232;2023-12-14T13:48:45;12.30;99.90
20526;DHT22;10421;49.142;9.232;2023-12-14T13:51:11;12.30;99.90
20526;DHT22;10421;49.142;9.232;2023-12-14T13:53:38;12.30;99.90
20526;DHT22;10421;49.142;9.232;2023-12-14T13:56:05;12.20;99.90
20526;DHT22;10421;49.142;9.232;2023-12-14T13:58:32;12.20;99.90
20526;DHT22;10421;49.142;9.232;2023-12-14T14:01:02;12.20;99.90
20526;DHT22;10421;49.142;9.232;2023-12-14T14:03:32;12.20;99.90
20526;DHT22;10421;49.142;9.232;2023-12-14T14:05:59;12.20;99.90
20526;DHT22;10421;49.142;9.232;2023-12-14T14:08:26;12.20;99.90
20526;DHT22;10421;49.142;9.232;2023-12-14T14:10:52;12.20;99.90
20526;DHT22;10421;49.142;9.232;2023-12-14T14:13:19;12.20;99.90
20526;DHT22;10421;49.142;9.232;2023-12-14T14:15:47;12.20;99.90
20526;DHT22;10421;49.142;9.232;2023-12-14T14:18:14;12.20;99.90
20526;DHT22;10421;49.142;9.232;2023-12-14T14:20:42;12.20;99.90
20526;DHT22;10421;49.142;9.232;2023-12-14T14:23:09;12.20;99.90
20526;DHT22;10421;49.142;9.232;2023-12-14T14:25:35;12.20;99.90
20526;DHT22;10421;49.142;9.232;2023-12-14T14:28:02;12.20;99.90
20526;DHT22;10421;49.142;9.232;2023-12-14T14:30:29;12.20;99.90
20526;DHT22;10421;49.142;9.232;2023-12-14T14:32:56;12.20;99.90
20526;DHT22;10421;49.142;9.232;2023-12-14T14:35:23;12.20;99.90
20526;DHT22;10421;49.142;9.232;2023-12-14T14:37:51;12.10;99.90
20526;DHT22;10421;49.142;9.232;2023-12-14T14:40:18;12.10;99.90
20526;DHT22;10421;49.142;9.232;2023-12-14T14:42:44;12.10;99.90
20526;DHT22;10421;49.142;9.232;2023-12-14T14:45:11;12.10;99.90
20526;DHT22;10421;49.142;9.232;2023-12-14T14:47:39;12.00;99.90
20526;DHT22;10421;49.142;9.232;2023-12-14T14:50:06;12.10;99.90
20526;DHT22;10421;49.142;9.232;2023-12-14T14:52:34;12.00;99.90
20526;DHT22;10421;49.142;9.232;2023-12-14T14:55:02;12.10;99.90
20526;DHT22;10421;49.142;9.232;2023-12-14T14:57:28;12.00;99.90
20526;DHT22;10421;49.142;9.232;2023-12-14T14:59:55;12.00;99.90
20526;DHT22;10421;49.142;9.232;2023-12-14T15:02:22;12.00;99.90
20526;DHT22;10421;49.142;9.232;2023-12-14T15:04:49;12.00;99.90
20526;DHT22;10421;49.142;9.232;2023-12-14T15:07:15;12.00;99.90
20526;DHT22;10421;49.142;9.232;2023-12-14T15:09:42;12.00;99.90
20526;DHT22;10421;49.142;9.232;2023-12-14T15:12:11;12.00;99.90
20526;DHT22;10421;49.142;9.232;2023-12-14T15:14:37;11.90;99.90
20526;DHT22;10421;49.142;9.232;2023-12-14T15:17:04;11.90;99.90
20526;DHT22;10421;49.142;9.232;2023-12-14T15:19:31;11.90;99.90
20526;DHT22;10421;49.142;9.232;2023-12-14T15:21:57;11.90;99.90
20526;DHT22;10421;49.142;9.232;2023-12-14T15:24:24;11.90;99.90
20526;DHT22;10421;49.142;9.232;2023-12-14T15:26:51;11.90;99.90
20526;DHT22;10421;49.142;9.232;2023-12-14T15:29:19;12.00;99.90
20526;DHT22;10421;49.142;9.232;2023-12-14T15:31:46;12.00;99.90